createdAt,value
2023-01-11T00:01:12.213Z,7.98
2023-01-11T00:03:40.061Z,8.30
2023-01-11T00:06:10.612Z,8.01
2023-01-11T00:08:38.700Z,8.15
2023-01-11T00:11:13.769Z,8.39
2023-01-11T00:13:41.750Z,8.28
2023-01-11T00:16:10.511Z,8.42
2023-01-11T00:18:38.752Z,8.42
2023-01-11T00:21:07.625Z,8.03
2023-01-11T00:23:38.497Z,8.37
2023-01-11T00:26:07.393Z,8.27
2023-01-11T00:28:35.723Z,7.91
2023-01-11T00:31:03.823Z,8.07
2023-01-11T00:33:31.754Z,8.24
2023-01-11T00:35:59.777Z,8.45
2023-01-11T00:38:47.077Z,8.27
2023-01-11T00:41:40.360Z,8.26
2023-01-11T00:44:27.832Z,8.19
2023-01-11T00:47:12.893Z,8.37
2023-01-11T00:49:40.923Z,8.28
2023-01-11T00:52:10.025Z,8.45
2023-01-11T00:54:38.570Z,8.59
2023-01-11T00:57:08.604Z,8.60
2023-01-11T00:59:36.632Z,8.06
2023-01-11T01:02:04.764Z,8.43
2023-01-11T01:04:33.007Z,7.99
2023-01-11T01:07:00.868Z,8.22
2023-01-11T01:09:29.041Z,8.32
2023-01-11T01:11:56.923Z,8.22
2023-01-11T01:14:29.789Z,8.31
2023-01-11T01:16:59.687Z,7.97
2023-01-11T01:19:28.794Z,8.23
2023-01-11T01:21:57.862Z,8.36
2023-01-11T01:24:28.259Z,8.50
2023-01-11T01:26:56.328Z,8.54
2023-01-11T01:29:26.283Z,8.44
2023-01-11T01:31:54.245Z,8.20
2023-01-11T01:34:22.164Z,8.39
2023-01-11T01:36:50.140Z,8.31
2023-01-11T01:39:17.999Z,8.17
2023-01-11T01:41:45.870Z,8.23
2023-01-11T01:44:55.686Z,8.35
2023-01-11T01:47:28.482Z,8.29
2023-01-11T01:49:58.598Z,8.13
2023-01-11T01:52:29.292Z,8.30
2023-01-11T01:55:01.387Z,8.20
2023-01-11T01:57:35.438Z,8.62
2023-01-11T02:00:07.803Z,8.54
2023-01-11T02:02:38.244Z,8.75
2023-01-11T02:05:08.134Z,8.66
2023-01-11T02:07:39.534Z,8.64
2023-01-11T02:10:10.341Z,8.79
2023-01-11T02:12:41.614Z,8.60
2023-01-11T02:15:13.010Z,8.71
2023-01-11T02:17:40.951Z,8.83
2023-01-11T02:20:23.388Z,8.75
2023-01-11T02:23:21.269Z,8.95
2023-01-11T02:26:32.489Z,8.76
2023-01-11T02:29:10.056Z,9.11
2023-01-11T02:31:45.762Z,8.83
2023-01-11T02:34:27.852Z,8.77
2023-01-11T02:37:09.072Z,8.85
2023-01-11T02:39:46.982Z,8.90
2023-01-11T02:42:39.087Z,8.68
2023-01-11T02:45:18.845Z,8.97
2023-01-11T02:47:52.371Z,8.68
2023-01-11T02:50:24.694Z,8.69
2023-01-11T02:52:58.823Z,9.02
2023-01-11T02:55:30.444Z,8.79
2023-01-11T02:58:02.317Z,8.53
2023-01-11T03:00:31.943Z,8.52
2023-01-11T03:03:13.672Z,8.65
2023-01-11T03:05:48.100Z,9.00
2023-01-11T03:08:45.143Z,9.01
2023-01-11T03:11:36.887Z,9.01
2023-01-11T03:14:11.152Z,8.47
2023-01-11T03:16:50.627Z,9.13
2023-01-11T03:19:29.229Z,8.79
2023-01-11T03:22:02.853Z,8.61
2023-01-11T03:24:34.326Z,8.96
2023-01-11T03:27:23.141Z,8.74
2023-01-11T03:29:55.455Z,9.02
2023-01-11T03:32:37.359Z,9.01
2023-01-11T03:35:25.368Z,9.09
2023-01-11T03:37:58.834Z,9.09
2023-01-11T03:40:31.566Z,8.75
2023-01-11T03:43:14.769Z,8.80
2023-01-11T03:45:47.757Z,8.94
2023-01-11T03:48:20.920Z,9.01
2023-01-11T03:50:52.059Z,9.13
2023-01-11T03:53:24.198Z,8.90
2023-01-11T03:55:56.933Z,8.77
2023-01-11T03:58:27.184Z,8.99
2023-01-11T04:00:57.900Z,8.93
2023-01-11T04:03:28.237Z,8.81
2023-01-11T04:06:00.657Z,8.73
2023-01-11T04:08:28.680Z,8.67
2023-01-11T04:10:56.752Z,9.10
2023-01-11T04:13:24.645Z,8.99
2023-01-11T04:15:53.859Z,9.07
2023-01-11T04:18:21.735Z,8.98
2023-01-11T04:20:50.991Z,9.17
2023-01-11T04:23:18.907Z,9.01
2023-01-11T04:25:48.077Z,9.30
2023-01-11T04:28:16.117Z,9.19
2023-01-11T04:30:44.047Z,9.12
2023-01-11T04:33:13.261Z,9.04
2023-01-11T04:35:41.326Z,9.19
2023-01-11T04:38:10.583Z,9.27
2023-01-11T04:40:38.513Z,9.29
2023-01-11T04:43:05.442Z,9.46
2023-01-11T04:45:33.427Z,8.82
2023-01-11T04:48:01.341Z,9.50
2023-01-11T04:50:29.244Z,9.45
2023-01-11T04:52:59.162Z,9.29
2023-01-11T04:55:28.485Z,8.93
2023-01-11T04:57:56.407Z,8.90
2023-01-11T05:00:24.418Z,9.12
2023-01-11T05:02:52.327Z,9.40
2023-01-11T05:05:20.252Z,9.42
2023-01-11T05:07:49.604Z,9.43
2023-01-11T05:10:20.736Z,9.16
2023-01-11T05:12:50.211Z,9.52
2023-01-11T05:15:18.148Z,9.56
2023-01-11T05:17:46.021Z,9.62
2023-01-11T05:20:14.352Z,9.52
2023-01-11T05:22:42.372Z,9.31
2023-01-11T05:25:10.705Z,9.64
2023-01-11T05:27:38.533Z,9.32
2023-01-11T05:30:09.945Z,9.37
2023-01-11T05:32:37.881Z,9.51
2023-01-11T05:35:09.978Z,9.58
2023-01-11T05:37:38.064Z,9.54
2023-01-11T05:40:07.151Z,9.44
2023-01-11T05:42:35.015Z,9.39
2023-01-11T05:45:20.296Z,9.62
2023-01-11T05:47:49.547Z,9.72
2023-01-11T05:50:17.782Z,9.53
2023-01-11T05:52:45.646Z,9.43
2023-01-11T05:55:13.515Z,9.26
2023-01-11T05:57:42.168Z,9.68
2023-01-11T06:00:12.083Z,9.44
2023-01-11T06:02:40.802Z,9.38
2023-01-11T06:05:11.219Z,9.61
2023-01-11T06:07:40.091Z,9.16
2023-01-11T06:10:09.557Z,9.40
2023-01-11T06:12:37.444Z,9.24
2023-01-11T06:15:06.004Z,9.39
2023-01-11T06:17:33.869Z,9.51
2023-01-11T06:20:01.688Z,9.49
2023-01-11T06:22:30.847Z,9.56
2023-01-11T06:24:58.657Z,9.29
2023-01-11T06:27:26.599Z,9.52
2023-01-11T06:29:54.456Z,9.55
2023-01-11T06:32:22.319Z,9.83
2023-01-11T06:34:50.191Z,9.73
2023-01-11T06:37:18.023Z,9.79
2023-01-11T06:39:47.295Z,9.50
2023-01-11T06:42:15.148Z,9.79
2023-01-11T06:44:43.057Z,9.89
2023-01-11T06:47:10.900Z,9.33
2023-01-11T06:49:38.836Z,9.54
2023-01-11T06:52:06.738Z,9.52
2023-01-11T06:54:34.643Z,9.92
2023-01-11T06:57:03.915Z,9.82
2023-01-11T06:59:31.804Z,9.70
2023-01-11T07:01:59.888Z,9.77
2023-01-11T07:04:27.754Z,9.88
2023-01-11T07:06:56.336Z,10.13
2023-01-11T07:09:24.201Z,9.67
2023-01-11T07:11:52.124Z,10.08
2023-01-11T07:14:22.126Z,9.88
2023-01-11T07:16:50.050Z,9.76
2023-01-11T07:19:18.545Z,10.10
2023-01-11T07:21:46.427Z,9.73
2023-01-11T07:24:15.571Z,9.92
2023-01-11T07:26:43.799Z,9.78
2023-01-11T07:29:12.358Z,9.55
2023-01-11T07:31:41.654Z,9.69
2023-01-11T07:34:09.530Z,9.93
2023-01-11T07:36:39.644Z,9.94
2023-01-11T07:39:08.042Z,9.48
2023-01-11T07:41:53.367Z,9.78
2023-01-11T07:44:21.440Z,10.00
2023-01-11T07:46:50.837Z,10.10
2023-01-11T07:49:18.797Z,9.62
2023-01-11T07:51:46.678Z,10.01
2023-01-11T07:54:14.672Z,9.93
2023-01-11T07:56:42.501Z,10.13
2023-01-11T07:59:10.761Z,10.11
2023-01-11T08:01:38.728Z,9.64
2023-01-11T08:04:11.958Z,10.18
2023-01-11T08:06:40.039Z,9.86
2023-01-11T08:09:08.437Z,10.36
2023-01-11T08:11:53.901Z,10.26
2023-01-11T08:14:40.156Z,10.25
2023-01-11T08:17:08.471Z,10.49
2023-01-11T08:19:37.862Z,10.29
2023-01-11T08:22:06.144Z,10.43
2023-01-11T08:24:34.686Z,10.47
2023-01-11T08:27:02.964Z,10.38
2023-01-11T08:29:32.303Z,10.29
2023-01-11T08:32:00.700Z,10.33
2023-01-11T08:34:29.137Z,10.25
2023-01-11T08:36:58.506Z,10.07
2023-01-11T08:39:29.557Z,10.21
2023-01-11T08:41:57.534Z,10.53
2023-01-11T08:44:33.660Z,10.41
2023-01-11T08:47:02.051Z,10.29
2023-01-11T08:49:30.544Z,10.39
2023-01-11T08:51:59.881Z,10.33
2023-01-11T08:54:27.858Z,10.65
2023-01-11T08:56:56.303Z,10.46
2023-01-11T08:59:24.203Z,10.69
2023-01-11T09:01:52.141Z,10.57
2023-01-11T09:04:25.286Z,10.91
2023-01-11T09:06:53.773Z,10.65
2023-01-11T09:09:23.158Z,10.83
2023-01-11T09:11:57.250Z,10.52
2023-01-11T09:14:26.685Z,10.31
2023-01-11T09:16:55.144Z,10.49
2023-01-11T09:19:23.432Z,10.21
2023-01-11T09:21:51.891Z,10.60
2023-01-11T09:24:20.011Z,10.51
2023-01-11T09:26:49.370Z,10.62
2023-01-11T09:29:17.574Z,10.41
2023-01-11T09:31:45.444Z,10.53
2023-01-11T09:34:13.881Z,10.37
2023-01-11T09:36:43.054Z,10.51
2023-01-11T09:39:14.502Z,10.30
2023-01-11T09:42:05.315Z,10.01
2023-01-11T09:44:36.622Z,10.45
2023-01-11T09:47:15.301Z,10.55
2023-01-11T09:49:50.943Z,10.26
2023-01-11T09:52:28.908Z,10.46
2023-01-11T09:54:59.534Z,10.04
2023-01-11T09:57:42.118Z,10.41
2023-01-11T10:00:20.533Z,9.68
2023-01-11T10:03:05.561Z,10.35
2023-01-11T10:05:57.121Z,10.01
2023-01-11T10:18:22.463Z,10.56
2023-01-11T10:18:41.585Z,10.46
2023-01-11T10:20:41.639Z,10.49
2023-01-11T10:23:16.068Z,10.55
2023-01-11T10:25:51.455Z,10.75
2023-01-11T10:28:26.895Z,10.88
2023-01-11T10:31:11.301Z,10.73
2023-01-11T10:34:05.930Z,10.61
2023-01-11T10:36:55.492Z,10.67
2023-01-11T10:39:50.668Z,10.73
2023-01-11T10:42:22.553Z,10.87
2023-01-11T10:45:00.135Z,10.71
2023-01-11T10:47:36.525Z,10.95
2023-01-11T10:50:15.749Z,10.63
2023-01-11T10:52:51.940Z,10.98
2023-01-11T10:55:26.665Z,10.93
2023-01-11T10:58:08.479Z,10.65
2023-01-11T11:00:48.502Z,10.95
2023-01-11T11:03:42.355Z,10.47
2023-01-11T11:06:14.770Z,10.84
2023-01-11T11:08:52.644Z,10.84
2023-01-11T11:11:24.074Z,10.84
2023-01-11T11:13:59.156Z,11.18
2023-01-11T11:16:41.081Z,11.07
2023-01-11T11:19:13.579Z,11.08
2023-01-11T11:21:47.537Z,10.89
2023-01-11T11:24:23.698Z,11.12
2023-01-11T11:26:58.467Z,11.15
2023-01-11T11:29:30.602Z,11.06
2023-01-11T11:32:01.185Z,10.69
2023-01-11T11:34:31.032Z,11.23
2023-01-11T11:37:01.839Z,11.26
2023-01-11T11:39:32.053Z,11.04
2023-01-11T11:42:08.137Z,11.02
2023-01-11T11:44:36.324Z,10.85
2023-01-11T11:47:05.574Z,11.11
2023-01-11T11:49:36.088Z,10.94
2023-01-11T11:52:06.561Z,11.15
2023-01-11T11:54:38.009Z,11.00
2023-01-11T11:57:16.228Z,11.03
2023-01-11T11:59:47.533Z,10.96
2023-01-11T12:02:25.203Z,11.07
2023-01-11T12:04:56.454Z,11.22
2023-01-11T12:07:27.771Z,11.12
2023-01-11T12:09:59.833Z,11.39
2023-01-11T12:12:29.664Z,11.35
2023-01-11T12:15:09.384Z,11.31
2023-01-11T12:17:37.999Z,10.91
2023-01-11T12:20:31.454Z,11.39
2023-01-11T12:23:16.866Z,11.22
2023-01-11T12:26:08.088Z,11.38
2023-01-11T12:29:03.111Z,11.55
2023-01-11T12:31:41.448Z,11.45
2023-01-11T12:34:23.114Z,11.69
2023-01-11T12:37:03.648Z,11.51
2023-01-11T12:39:39.853Z,11.59
2023-01-11T12:42:33.208Z,11.52
2023-01-11T12:45:16.997Z,11.59
2023-01-11T12:48:13.535Z,11.39
2023-01-11T12:50:54.451Z,11.40
2023-01-11T12:53:36.669Z,11.57
2023-01-11T12:56:34.373Z,11.30
2023-01-11T12:59:09.462Z,11.17
2023-01-11T13:01:50.395Z,11.50
2023-01-11T13:04:48.395Z,11.45
2023-01-11T13:07:28.866Z,11.40
2023-01-11T13:10:10.779Z,11.36
2023-01-11T13:12:45.785Z,11.17
2023-01-11T13:15:35.502Z,11.48
2023-01-11T13:18:13.390Z,11.32
2023-01-11T13:21:00.815Z,11.53
2023-01-11T13:23:39.129Z,11.50
2023-01-11T13:26:17.670Z,11.70
2023-01-11T13:28:49.829Z,11.50
2023-01-11T13:31:18.587Z,11.51
2023-01-11T13:33:50.655Z,11.14
2023-01-11T13:36:24.100Z,11.44
2023-01-11T13:39:00.119Z,11.46
2023-01-11T13:41:34.300Z,11.56
2023-01-11T13:44:07.293Z,11.47
2023-01-11T13:46:48.585Z,11.69
2023-01-11T13:49:36.143Z,11.37
2023-01-11T13:52:11.089Z,11.25
2023-01-11T13:54:49.545Z,11.54
2023-01-11T13:57:26.757Z,11.61
2023-01-11T14:00:02.634Z,11.82
2023-01-11T14:02:44.796Z,11.56
2023-01-11T14:05:16.540Z,11.41
2023-01-11T14:08:00.530Z,11.73
2023-01-11T14:10:39.839Z,11.54
2023-01-11T14:13:41.379Z,11.40
2023-01-11T14:16:19.935Z,11.62
2023-01-11T14:18:55.257Z,11.63
2023-01-11T14:21:30.884Z,11.75
2023-01-11T14:23:59.652Z,11.82
2023-01-11T14:26:54.466Z,11.91
2023-01-11T14:29:40.771Z,11.86
2023-01-11T14:32:23.679Z,11.86
2023-01-11T14:35:28.131Z,11.86
2023-01-11T14:38:35.980Z,11.78
2023-01-11T14:41:40.405Z,11.88
2023-01-11T14:44:18.950Z,12.05
2023-01-11T14:47:12.003Z,11.99
2023-01-11T14:49:52.618Z,11.91
2023-01-11T14:52:38.936Z,12.05
2023-01-11T14:55:16.871Z,12.05
2023-01-11T14:57:45.453Z,11.97
2023-01-11T15:00:49.319Z,12.11
2023-01-11T15:03:46.996Z,12.05
2023-01-11T15:06:17.128Z,12.04
2023-01-11T15:08:48.063Z,12.17
2023-01-11T15:11:38.520Z,12.03
2023-01-11T15:14:23.368Z,11.75
2023-01-11T15:17:11.496Z,12.11
2023-01-11T15:19:44.351Z,12.06
2023-01-11T15:22:25.665Z,11.93
2023-01-11T15:24:59.743Z,11.83
2023-01-11T15:27:32.838Z,11.80
2023-01-11T15:30:01.298Z,11.81
2023-01-11T15:32:31.316Z,11.99
2023-01-11T15:35:32.902Z,11.80
2023-01-11T15:38:09.324Z,11.74
2023-01-11T15:40:41.222Z,12.05
2023-01-11T15:43:46.533Z,11.99
2023-01-11T15:46:56.303Z,11.84
2023-01-11T15:50:13.496Z,11.67
2023-01-11T15:53:33.161Z,12.05
2023-01-11T15:56:24.059Z,12.12
2023-01-11T15:59:10.988Z,12.17
2023-01-11T16:01:55.567Z,12.14
2023-01-11T16:04:30.193Z,12.12
2023-01-11T16:07:02.868Z,12.23
2023-01-11T16:10:02.260Z,12.35
2023-01-11T16:12:59.555Z,12.01
2023-01-11T16:15:39.340Z,12.25
2023-01-11T16:18:14.601Z,11.99
2023-01-11T16:20:45.112Z,12.35
2023-01-11T16:23:20.277Z,12.47
2023-01-11T16:25:56.193Z,12.37
2023-01-11T16:28:25.346Z,12.40
2023-01-11T16:30:57.725Z,12.40
2023-01-11T16:33:27.619Z,12.40
2023-01-11T16:36:13.060Z,12.16
2023-01-11T16:38:48.185Z,12.42
2023-01-11T16:41:17.996Z,12.26
2023-01-11T16:43:52.687Z,12.44
2023-01-11T16:47:06.891Z,12.51
2023-01-11T16:49:35.284Z,12.42
2023-01-11T16:52:45.345Z,12.60
2023-01-11T16:55:20.498Z,12.51
2023-01-11T16:57:54.093Z,12.52
2023-01-11T17:00:27.607Z,12.61
2023-01-11T17:03:05.717Z,12.45
2023-01-11T17:05:33.734Z,12.42
2023-01-11T17:08:01.652Z,12.27
2023-01-11T17:10:31.153Z,12.31
2023-01-11T17:13:48.162Z,12.41
2023-01-11T17:16:17.372Z,12.37
2023-01-11T17:18:45.695Z,12.50
2023-01-11T17:21:19.589Z,12.73
2023-01-11T17:23:49.842Z,12.65
2023-01-11T17:26:22.778Z,12.73
2023-01-11T17:28:55.954Z,12.63
2023-01-11T17:31:27.815Z,12.63
2023-01-11T17:34:04.666Z,12.63
2023-01-11T17:36:33.604Z,12.81
2023-01-11T17:39:01.990Z,12.56
2023-01-11T17:41:48.046Z,12.48
2023-01-11T17:44:37.829Z,12.52
2023-01-11T17:47:08.598Z,12.50
2023-01-11T17:49:38.797Z,12.33
2023-01-11T17:52:21.121Z,12.55
2023-01-11T17:55:00.201Z,12.48
2023-01-11T17:57:28.267Z,12.45
2023-01-11T18:00:19.848Z,12.43
2023-01-11T18:02:48.239Z,12.41
2023-01-11T18:05:19.062Z,12.47
2023-01-11T18:07:50.214Z,12.21
2023-01-11T18:10:20.724Z,12.27
2023-01-11T18:12:50.610Z,12.28
2023-01-11T18:15:26.006Z,12.33
2023-01-11T18:17:56.991Z,12.37
2023-01-11T18:20:37.781Z,12.44
2023-01-11T18:23:19.223Z,12.56
2023-01-11T18:25:47.500Z,12.45
2023-01-11T18:28:28.397Z,12.47
2023-01-11T18:31:01.712Z,12.55
2023-01-11T18:33:32.552Z,12.43
2023-01-11T18:36:03.140Z,12.39
2023-01-11T18:38:32.679Z,12.48
2023-01-11T18:41:23.415Z,12.40
2023-01-11T18:43:51.324Z,12.32
2023-01-11T18:46:20.754Z,12.13
2023-01-11T18:48:48.699Z,12.23
2023-01-11T18:51:19.213Z,12.34
2023-01-11T18:53:47.127Z,12.28
2023-01-11T18:56:16.379Z,12.25
2023-01-11T18:58:44.500Z,12.33
2023-01-11T19:01:12.933Z,12.33
2023-01-11T19:03:43.770Z,12.31
2023-01-11T19:06:14.185Z,12.21
2023-01-11T19:08:42.145Z,12.14
2023-01-11T19:11:10.018Z,12.19
2023-01-11T19:13:37.893Z,12.22
2023-01-11T19:16:06.650Z,12.06
2023-01-11T19:18:35.388Z,12.21
2023-01-11T19:21:06.617Z,12.13
2023-01-11T19:23:34.595Z,12.07
2023-01-11T19:26:02.509Z,11.95
2023-01-11T19:28:31.092Z,12.08
2023-01-11T19:30:59.307Z,12.09
2023-01-11T19:33:27.309Z,12.20
2023-01-11T19:35:55.242Z,12.02
2023-01-11T19:38:24.647Z,12.08
2023-01-11T19:40:52.601Z,12.15
2023-01-11T19:43:20.557Z,12.11
2023-01-11T19:45:56.325Z,12.04
2023-01-11T19:48:24.274Z,12.14
2023-01-11T19:50:52.583Z,11.66
2023-01-11T19:53:20.431Z,11.94
2023-01-11T19:55:49.809Z,11.85
2023-01-11T19:58:17.688Z,11.92
2023-01-11T20:00:45.619Z,11.65
2023-01-11T20:03:13.600Z,11.78
2023-01-11T20:05:41.466Z,11.73
2023-01-11T20:08:09.376Z,11.64
2023-01-11T20:10:37.251Z,11.60
2023-01-11T20:13:06.496Z,11.70
2023-01-11T20:15:34.425Z,11.71
2023-01-11T20:18:02.325Z,11.52
2023-01-11T20:20:30.175Z,11.62
2023-01-11T20:22:58.049Z,11.61
2023-01-11T20:25:25.957Z,11.44
2023-01-11T20:27:53.962Z,11.39
2023-01-11T20:30:23.175Z,11.57
2023-01-11T20:32:51.154Z,11.58
2023-01-11T20:35:19.195Z,11.51
2023-01-11T20:37:47.042Z,11.53
2023-01-11T20:40:14.922Z,11.66
2023-01-11T20:42:43.135Z,11.63
2023-01-11T20:45:12.049Z,11.57
2023-01-11T20:47:41.306Z,11.45
2023-01-11T20:50:10.249Z,11.18
2023-01-11T20:52:38.137Z,11.34
2023-01-11T20:55:06.970Z,11.21
2023-01-11T20:57:34.855Z,11.11
2023-01-11T21:00:02.823Z,11.34
2023-01-11T21:02:30.677Z,11.30
2023-01-11T21:04:59.920Z,11.28
2023-01-11T21:07:27.705Z,11.26
2023-01-11T21:09:55.544Z,11.28
2023-01-11T21:12:23.696Z,11.18
2023-01-11T21:14:51.601Z,11.29
2023-01-11T21:17:20.182Z,11.23
2023-01-11T21:19:47.983Z,11.18
2023-01-11T21:22:17.238Z,11.20
2023-01-11T21:24:45.194Z,11.30
2023-01-11T21:27:13.132Z,11.21
2023-01-11T21:29:41.066Z,11.16
2023-01-11T21:32:08.918Z,11.10
2023-01-11T21:34:36.778Z,11.09
2023-01-11T21:37:04.856Z,10.80
2023-01-11T21:39:34.228Z,10.89
2023-01-11T21:42:03.559Z,10.67
2023-01-11T21:44:33.668Z,10.75
2023-01-11T21:47:02.850Z,10.77
2023-01-11T21:49:31.051Z,10.76
2023-01-11T21:51:59.569Z,10.74
2023-01-11T21:54:27.509Z,10.75
2023-01-11T21:56:56.869Z,10.71
2023-01-11T21:59:24.953Z,10.54
2023-01-11T22:01:52.877Z,10.78
2023-01-11T22:04:22.240Z,10.75
2023-01-11T22:06:55.210Z,10.40
2023-01-11T22:09:26.263Z,10.54
2023-01-11T22:11:54.357Z,10.60
2023-01-11T22:14:23.765Z,10.63
2023-01-11T22:16:51.868Z,10.71
2023-01-11T22:19:20.403Z,10.73
2023-01-11T22:21:48.308Z,10.51
2023-01-11T22:24:17.443Z,10.53
2023-01-11T22:26:45.412Z,10.30
2023-01-11T22:29:14.961Z,10.54
2023-01-11T22:31:46.772Z,10.34
2023-01-11T22:34:15.580Z,10.38
2023-01-11T22:36:44.494Z,10.19
2023-01-11T22:39:13.514Z,10.18
2023-01-11T22:41:41.468Z,10.38
2023-01-11T22:44:10.403Z,10.25
2023-01-11T22:46:38.997Z,10.35
2023-01-11T22:49:09.227Z,10.27
2023-01-11T22:51:37.831Z,9.94
2023-01-11T22:54:06.234Z,10.14
2023-01-11T22:56:34.693Z,9.86
2023-01-11T22:59:02.935Z,9.82
2023-01-11T23:01:32.511Z,9.91
2023-01-11T23:04:01.283Z,9.97
2023-01-11T23:06:32.442Z,9.77
2023-01-11T23:09:00.779Z,9.98
2023-01-11T23:11:48.420Z,9.88
2023-01-11T23:14:18.186Z,10.01
2023-01-11T23:16:47.347Z,9.57
2023-01-11T23:19:18.435Z,9.64
2023-01-11T23:21:48.628Z,9.79
2023-01-11T23:24:17.728Z,9.86
2023-01-11T23:26:46.180Z,9.93
2023-01-11T23:29:14.367Z,9.72
2023-01-11T23:31:43.702Z,9.60
2023-01-11T23:34:13.115Z,9.38
2023-01-11T23:36:43.373Z,9.82
2023-01-11T23:39:15.189Z,9.68
2023-01-11T23:42:00.913Z,9.49
2023-01-11T23:44:28.747Z,9.72
2023-01-11T23:47:14.281Z,9.44
2023-01-11T23:49:43.225Z,9.69
2023-01-11T23:52:11.697Z,9.63
2023-01-11T23:54:41.244Z,9.46
2023-01-11T23:57:09.376Z,9.23
2023-01-11T23:59:37.267Z,9.41
